createdAt,value
2022-11-09T00:01:12.930Z,25.27
2022-11-09T00:03:45.812Z,30.40
2022-11-09T00:06:18.275Z,27.83
2022-11-09T00:08:51.491Z,32.33
2022-11-09T00:11:24.247Z,31.63
2022-11-09T00:13:56.726Z,27.70
2022-11-09T00:16:29.966Z,30.73
2022-11-09T00:19:02.413Z,29.42
2022-11-09T00:21:35.038Z,30.52
2022-11-09T00:24:07.565Z,28.42
2022-11-09T00:26:40.021Z,23.63
2022-11-09T00:29:12.414Z,27.35
2022-11-09T00:31:45.525Z,23.98
2022-11-09T00:34:20.718Z,32.10
2022-11-09T00:36:53.062Z,30.05
2022-11-09T00:39:25.498Z,31.83
2022-11-09T00:41:57.836Z,30.80
2022-11-09T00:44:30.220Z,36.88
2022-11-09T00:47:03.389Z,33.90
2022-11-09T00:49:35.734Z,33.50
2022-11-09T00:52:08.444Z,28.23
2022-11-09T00:54:41.108Z,30.77
2022-11-09T00:57:13.577Z,29.58
2022-11-09T00:59:49.378Z,31.45
2022-11-09T01:02:22.501Z,29.20
2022-11-09T01:04:55.017Z,29.40
2022-11-09T01:07:27.388Z,29.75
2022-11-09T01:09:59.783Z,30.13
2022-11-09T01:12:32.738Z,31.30
2022-11-09T01:15:06.161Z,29.75
2022-11-09T01:17:40.327Z,25.40
2022-11-09T01:20:13.060Z,30.30
2022-11-09T01:22:45.449Z,25.50
2022-11-09T01:25:17.856Z,29.10
2022-11-09T01:27:50.228Z,27.85
2022-11-09T01:30:22.707Z,18.45
2022-11-09T01:32:55.811Z,28.70
2022-11-09T01:35:28.262Z,22.50
2022-11-09T01:38:01.671Z,24.42
2022-11-09T01:40:36.409Z,22.35
2022-11-09T01:43:16.185Z,19.17
2022-11-09T01:45:51.859Z,25.40
2022-11-09T01:48:34.407Z,32.30
2022-11-09T01:51:13.332Z,26.83
2022-11-09T01:53:49.385Z,30.17
2022-11-09T01:56:22.133Z,31.75
2022-11-09T01:58:57.712Z,27.73
2022-11-09T02:01:31.555Z,24.35
2022-11-09T02:04:09.911Z,21.65
2022-11-09T02:06:43.242Z,26.60
2022-11-09T02:09:23.124Z,18.15
2022-11-09T02:14:29.872Z,26.85
2022-11-09T02:17:02.698Z,22.50
2022-11-09T02:19:36.393Z,20.65
2022-11-09T02:22:10.318Z,21.95
2022-11-09T02:24:42.812Z,27.10
2022-11-09T02:27:15.196Z,18.73
2022-11-09T02:29:49.067Z,20.88
2022-11-09T02:32:24.288Z,20.77
2022-11-09T02:34:58.547Z,13.35
2022-11-09T02:37:37.670Z,28.48
2022-11-09T02:40:14.348Z,19.77
2022-11-09T02:42:46.900Z,20.52
2022-11-09T02:45:19.314Z,21.17
2022-11-09T02:47:51.750Z,27.65
2022-11-09T02:50:24.382Z,20.38
2022-11-09T02:52:57.472Z,20.27
2022-11-09T02:55:32.813Z,22.27
2022-11-09T02:58:05.360Z,26.85
2022-11-09T03:00:37.961Z,19.85
2022-11-09T03:03:11.116Z,27.27
2022-11-09T03:05:43.804Z,27.65
2022-11-09T03:08:17.978Z,29.55
2022-11-09T03:10:51.486Z,24.05
2022-11-09T03:13:23.957Z,23.48
2022-11-09T03:15:56.466Z,26.85
2022-11-09T03:18:28.884Z,22.60
2022-11-09T03:21:02.557Z,25.60
2022-11-09T03:23:35.941Z,22.90
2022-11-09T03:26:08.748Z,28.08
2022-11-09T03:28:42.214Z,23.58
2022-11-09T03:31:14.819Z,21.77
2022-11-09T03:33:47.374Z,23.67
2022-11-09T03:36:20.472Z,25.95
2022-11-09T03:38:53.554Z,17.30
2022-11-09T03:41:26.133Z,24.33
2022-11-09T03:43:58.510Z,21.25
2022-11-09T03:46:30.959Z,22.40
2022-11-09T03:49:03.401Z,20.00
2022-11-09T03:51:35.877Z,18.50
2022-11-09T03:54:09.225Z,21.88
2022-11-09T03:56:41.562Z,21.45
2022-11-09T03:59:13.957Z,18.80
2022-11-09T04:01:46.399Z,21.73
2022-11-09T04:04:18.904Z,19.42
2022-11-09T04:06:51.300Z,18.13
2022-11-09T04:09:24.409Z,21.65
2022-11-09T04:11:56.766Z,26.00
2022-11-09T04:14:29.174Z,21.67
2022-11-09T04:17:01.541Z,21.30
2022-11-09T04:19:34.195Z,19.05
2022-11-09T04:22:06.807Z,16.58
2022-11-09T04:24:39.917Z,21.20
2022-11-09T04:27:12.329Z,16.85
2022-11-09T04:29:44.777Z,16.95
2022-11-09T04:32:17.479Z,17.77
2022-11-09T04:34:49.849Z,17.65
2022-11-09T04:37:22.204Z,16.92
2022-11-09T04:39:55.231Z,17.20
2022-11-09T04:42:27.593Z,15.25
2022-11-09T04:44:59.974Z,16.88
2022-11-09T04:47:32.785Z,19.50
2022-11-09T04:50:06.524Z,13.13
2022-11-09T04:52:39.005Z,22.27
2022-11-09T04:55:12.052Z,14.95
2022-11-09T04:57:44.426Z,19.13
2022-11-09T05:00:17.049Z,14.88
2022-11-09T05:02:49.411Z,19.65
2022-11-09T05:05:21.790Z,20.00
2022-11-09T05:07:54.137Z,27.52
2022-11-09T05:10:27.265Z,28.42
2022-11-09T05:13:01.466Z,24.33
2022-11-09T05:15:35.005Z,28.00
2022-11-09T05:18:08.093Z,21.73
2022-11-09T05:20:40.501Z,24.92
2022-11-09T05:23:31.098Z,22.60
2022-11-09T05:26:04.248Z,20.95
2022-11-09T05:28:36.741Z,30.98
2022-11-09T05:31:09.123Z,23.73
2022-11-09T05:33:41.487Z,24.08
2022-11-09T05:36:13.852Z,20.63
2022-11-09T05:38:46.753Z,22.92
2022-11-09T05:41:19.801Z,18.58
2022-11-09T05:43:52.270Z,22.45
2022-11-09T05:46:25.587Z,29.05
2022-11-09T05:48:57.923Z,30.00
2022-11-09T05:51:30.282Z,27.33
2022-11-09T05:54:02.814Z,30.25
2022-11-09T05:56:35.897Z,30.15
2022-11-09T05:59:08.484Z,35.63
2022-11-09T06:01:41.165Z,27.27
2022-11-09T06:04:13.577Z,25.08
2022-11-09T06:06:46.116Z,31.23
2022-11-09T06:09:18.504Z,22.65
2022-11-09T06:11:52.051Z,28.67
2022-11-09T06:14:24.699Z,23.25
2022-11-09T06:16:57.078Z,28.05
2022-11-09T06:19:29.448Z,31.33
2022-11-09T06:22:01.898Z,25.23
2022-11-09T06:24:35.062Z,29.95
2022-11-09T06:27:08.273Z,30.90
2022-11-09T06:29:40.690Z,34.22
2022-11-09T06:32:13.075Z,30.90
2022-11-09T06:34:47.625Z,31.67
2022-11-09T06:37:20.005Z,37.55
2022-11-09T06:39:52.453Z,42.15
2022-11-09T06:42:25.650Z,37.53
2022-11-09T06:44:58.071Z,29.85
2022-11-09T06:47:30.472Z,36.92
2022-11-09T06:50:02.973Z,40.78
2022-11-09T06:52:35.439Z,58.38
2022-11-09T06:55:09.250Z,41.42
2022-11-09T06:57:42.319Z,32.33
2022-11-09T07:00:16.137Z,37.25
2022-11-09T07:02:48.636Z,38.75
2022-11-09T07:05:21.067Z,33.75
2022-11-09T07:07:53.496Z,21.33
2022-11-09T07:10:25.964Z,18.88
2022-11-09T07:12:59.160Z,20.40
2022-11-09T07:15:31.985Z,25.25
2022-11-09T07:18:07.315Z,18.65
2022-11-09T07:20:39.821Z,18.70
2022-11-09T07:23:12.224Z,21.67
2022-11-09T07:25:44.642Z,19.17
2022-11-09T07:28:17.778Z,20.73
2022-11-09T07:30:52.306Z,22.80
2022-11-09T07:33:25.209Z,21.27
2022-11-09T07:35:58.825Z,20.42
2022-11-09T07:38:31.682Z,24.15
2022-11-09T07:41:04.222Z,21.30
2022-11-09T07:43:37.314Z,20.13
2022-11-09T07:46:10.702Z,19.60
2022-11-09T07:48:43.086Z,18.58
2022-11-09T07:51:15.423Z,17.25
2022-11-09T07:53:47.847Z,19.85
2022-11-09T07:56:20.345Z,19.73
2022-11-09T07:58:54.093Z,21.65
2022-11-09T08:01:26.595Z,28.05
2022-11-09T08:03:58.922Z,23.15
2022-11-09T08:06:31.360Z,21.45
2022-11-09T08:09:03.877Z,25.45
2022-11-09T08:11:36.290Z,29.17
2022-11-09T08:14:09.883Z,22.98
2022-11-09T08:16:42.414Z,23.65
2022-11-09T08:19:14.980Z,22.02
2022-11-09T08:21:47.355Z,21.77
2022-11-09T08:24:19.733Z,22.27
2022-11-09T08:26:52.088Z,19.48
2022-11-09T08:29:25.120Z,21.55
2022-11-09T08:31:57.515Z,22.75
2022-11-09T08:34:29.921Z,22.00
2022-11-09T08:37:04.724Z,19.60
2022-11-09T08:39:37.110Z,18.00
2022-11-09T08:42:09.458Z,19.13
2022-11-09T08:44:42.687Z,20.30
2022-11-09T08:47:15.049Z,18.35
2022-11-09T08:49:47.723Z,20.85
2022-11-09T08:52:20.150Z,17.63
2022-11-09T08:54:52.537Z,19.42
2022-11-09T08:57:25.128Z,17.83
2022-11-09T08:59:58.287Z,15.85
2022-11-09T09:02:30.687Z,21.42
2022-11-09T09:05:03.403Z,28.80
2022-11-09T09:07:35.785Z,20.13
2022-11-09T09:10:08.574Z,17.73
2022-11-09T09:12:40.915Z,19.13
2022-11-09T09:15:13.979Z,15.65
2022-11-09T09:17:46.484Z,17.13
2022-11-09T09:20:19.008Z,17.33
2022-11-09T09:22:51.383Z,20.77
2022-11-09T09:25:24.074Z,18.17
2022-11-09T09:27:56.594Z,19.25
2022-11-09T09:30:29.638Z,20.02
2022-11-09T09:33:02.289Z,17.83
2022-11-09T09:35:34.708Z,19.42
2022-11-09T09:38:07.103Z,20.88
2022-11-09T09:40:50.661Z,18.80
2022-11-09T09:43:28.630Z,24.40
2022-11-09T09:46:05.913Z,20.95
2022-11-09T09:48:43.545Z,20.60
2022-11-09T09:51:21.662Z,19.95
2022-11-09T09:54:01.192Z,24.38
2022-11-09T09:56:38.564Z,18.98
2022-11-09T09:59:19.106Z,21.38
2022-11-09T10:01:52.614Z,19.23
2022-11-09T10:04:32.470Z,22.98
2022-11-09T10:07:12.594Z,23.05
2022-11-09T10:10:00.260Z,19.75
2022-11-09T10:12:46.958Z,17.02
2022-11-09T10:15:25.430Z,14.32
2022-11-09T10:18:17.870Z,19.80
2022-11-09T10:21:06.613Z,17.77
2022-11-09T10:23:49.155Z,19.33
2022-11-09T10:26:27.172Z,19.15
2022-11-09T10:29:15.700Z,18.30
2022-11-09T10:31:51.749Z,18.75
2022-11-09T10:34:29.181Z,15.23
2022-11-09T10:37:09.806Z,21.20
2022-11-09T10:39:49.122Z,15.32
2022-11-09T10:42:44.386Z,18.90
2022-11-09T10:45:37.125Z,15.63
2022-11-09T10:48:33.477Z,18.77
2022-11-09T10:51:40.122Z,15.40
2022-11-09T10:54:34.133Z,21.42
2022-11-09T10:57:25.556Z,15.27
2022-11-09T11:00:18.556Z,16.83
2022-11-09T11:03:15.666Z,17.85
2022-11-09T11:06:14.615Z,19.35
2022-11-09T11:09:16.180Z,16.00
2022-11-09T11:12:14.525Z,17.42
2022-11-09T11:15:21.322Z,20.38
2022-11-09T11:18:22.393Z,20.77
2022-11-09T11:21:18.816Z,30.10
2022-11-09T11:24:17.941Z,16.92
2022-11-09T11:27:16.065Z,21.20
2022-11-09T11:30:11.421Z,19.35
2022-11-09T11:33:05.590Z,14.68
2022-11-09T11:36:04.736Z,20.73
2022-11-09T11:39:02.348Z,17.20
2022-11-09T11:42:10.931Z,23.42
2022-11-09T11:45:38.965Z,18.88
2022-11-09T11:48:54.735Z,13.32
2022-11-09T11:51:53.936Z,15.68
2022-11-09T11:55:01.736Z,21.02
2022-11-09T11:58:08.191Z,19.13
2022-11-09T12:01:12.414Z,20.33
2022-11-09T12:04:29.470Z,21.15
2022-11-09T12:10:31.637Z,19.73
2022-11-09T12:13:55.720Z,18.90
2022-11-09T12:16:52.718Z,20.02
2022-11-09T12:20:03.109Z,21.52
2022-11-09T12:23:11.041Z,21.65
2022-11-09T12:26:16.163Z,17.77
2022-11-09T12:29:19.048Z,21.08
2022-11-09T12:32:20.277Z,22.83
2022-11-09T12:35:27.314Z,21.90
2022-11-09T12:38:21.644Z,19.98
2022-11-09T12:41:16.490Z,19.92
2022-11-09T12:44:17.295Z,21.30
2022-11-09T12:47:15.154Z,20.88
2022-11-09T12:50:11.888Z,18.63
2022-11-09T12:53:04.713Z,16.35
2022-11-09T12:56:00.308Z,22.75
2022-11-09T12:58:51.573Z,17.73
2022-11-09T13:01:50.806Z,17.73
2022-11-09T13:04:55.109Z,18.20
2022-11-09T13:07:49.963Z,18.17
2022-11-09T13:10:41.319Z,23.80
2022-11-09T13:13:32.697Z,20.27
2022-11-09T13:16:35.390Z,19.17
2022-11-09T13:19:53.612Z,18.90
2022-11-09T13:22:59.879Z,21.90
2022-11-09T13:25:52.478Z,21.95
2022-11-09T13:29:05.897Z,17.58
2022-11-09T13:32:23.263Z,16.58
2022-11-09T13:35:44.077Z,18.70
2022-11-09T13:38:36.201Z,20.77
2022-11-09T13:41:42.407Z,19.63
2022-11-09T13:44:37.561Z,20.77
2022-11-09T13:47:36.505Z,35.55
2022-11-09T13:50:29.768Z,38.92
2022-11-09T13:53:29.717Z,20.35
2022-11-09T13:56:31.462Z,17.77
2022-11-09T13:59:27.201Z,23.73
2022-11-09T14:02:20.335Z,33.30
2022-11-09T14:05:27.258Z,19.35
2022-11-09T14:08:22.829Z,22.63
2022-11-09T14:11:38.610Z,19.02
2022-11-09T14:14:51.592Z,23.88
2022-11-09T14:17:56.129Z,22.02
2022-11-09T14:20:54.674Z,28.08
2022-11-09T14:23:45.768Z,34.17
2022-11-09T14:26:37.224Z,22.77
2022-11-09T14:29:32.216Z,21.45
2022-11-09T14:32:26.216Z,21.27
2022-11-09T14:35:22.922Z,21.08
2022-11-09T14:38:18.070Z,21.77
2022-11-09T14:41:19.878Z,19.65
2022-11-09T14:44:17.161Z,22.40
2022-11-09T14:47:15.426Z,21.63
2022-11-09T14:50:14.294Z,19.90
2022-11-09T14:53:06.150Z,18.98
2022-11-09T14:56:02.589Z,20.00
2022-11-09T14:58:56.269Z,20.75
2022-11-09T15:01:59.773Z,58.65
2022-11-09T15:04:55.852Z,57.17
2022-11-09T15:07:48.067Z,41.85
2022-11-09T15:10:39.321Z,36.38
2022-11-09T15:13:32.461Z,36.22
2022-11-09T15:16:27.649Z,38.85
2022-11-09T15:19:23.825Z,41.60
2022-11-09T15:22:47.838Z,39.20
2022-11-09T15:25:53.726Z,23.60
2022-11-09T15:28:46.700Z,27.15
2022-11-09T15:31:37.974Z,24.92
2022-11-09T15:34:38.605Z,28.42
2022-11-09T15:37:46.650Z,26.85
2022-11-09T15:40:37.348Z,34.10
2022-11-09T15:43:28.809Z,53.47
2022-11-09T15:46:22.993Z,54.63
2022-11-09T15:49:16.865Z,51.85
2022-11-09T15:52:11.446Z,42.58
2022-11-09T15:55:02.041Z,39.97
2022-11-09T15:57:52.777Z,41.53
2022-11-09T16:00:44.958Z,43.90
2022-11-09T16:03:36.002Z,45.25
2022-11-09T16:06:27.023Z,46.65
2022-11-09T16:09:18.631Z,50.40
2022-11-09T16:12:10.038Z,36.53
2022-11-09T16:15:00.665Z,43.53
2022-11-09T16:17:52.213Z,46.75
2022-11-09T16:20:43.045Z,36.97
2022-11-09T16:23:33.981Z,44.55
2022-11-09T16:26:25.685Z,38.20
2022-11-09T16:29:16.585Z,39.88
2022-11-09T16:32:07.667Z,58.53
2022-11-09T16:35:23.488Z,58.53
2022-11-09T16:38:10.562Z,56.13
2022-11-09T16:41:03.494Z,42.33
2022-11-09T16:43:56.715Z,41.42
2022-11-09T16:46:48.164Z,36.40
2022-11-09T16:49:39.049Z,39.97
2022-11-09T16:52:29.938Z,33.83
2022-11-09T16:55:21.029Z,38.38
2022-11-09T16:58:12.229Z,41.60
2022-11-09T17:01:11.484Z,34.60
2022-11-09T17:04:03.438Z,38.00
2022-11-09T17:06:55.106Z,31.27
2022-11-09T17:09:46.134Z,38.08
2022-11-09T17:12:37.182Z,33.72
2022-11-09T17:15:28.585Z,28.15
2022-11-09T17:18:20.529Z,38.38
2022-11-09T17:21:13.611Z,29.52
2022-11-09T17:24:05.699Z,37.20
2022-11-09T17:26:56.828Z,44.50
2022-11-09T17:29:47.935Z,46.53
2022-11-09T17:32:40.155Z,45.15
2022-11-09T17:35:35.817Z,48.13
2022-11-09T17:38:28.068Z,45.78
2022-11-09T17:41:20.935Z,39.88
2022-11-09T17:44:11.930Z,57.20
2022-11-09T17:47:03.959Z,61.53
2022-11-09T17:49:54.989Z,52.70
2022-11-09T17:52:47.027Z,45.83
2022-11-09T17:55:38.271Z,53.00
2022-11-09T17:58:29.736Z,49.33
2022-11-09T18:01:21.331Z,51.17
2022-11-09T18:04:12.797Z,47.13
2022-11-09T18:07:04.047Z,54.97
2022-11-09T18:09:55.996Z,78.75
2022-11-09T18:12:48.760Z,81.72
2022-11-09T18:15:39.947Z,61.45
2022-11-09T18:18:31.094Z,62.78
2022-11-09T18:21:24.161Z,47.25
2022-11-09T18:24:15.776Z,50.28
2022-11-09T18:27:07.590Z,48.15
2022-11-09T18:30:01.780Z,45.17
2022-11-09T18:32:53.106Z,53.53
2022-11-09T18:35:44.488Z,52.75
2022-11-09T18:38:36.160Z,48.55
2022-11-09T18:41:28.674Z,47.72
2022-11-09T18:44:20.693Z,43.95
2022-11-09T18:47:15.316Z,43.58
2022-11-09T18:50:07.053Z,42.35
2022-11-09T18:52:58.230Z,49.03
2022-11-09T18:55:51.265Z,51.13
2022-11-09T18:58:42.729Z,37.67
2022-11-09T19:01:34.917Z,35.38
2022-11-09T19:04:26.924Z,37.40
2022-11-09T19:07:18.872Z,48.08
2022-11-09T19:10:10.621Z,49.67
2022-11-09T19:13:07.537Z,43.45
2022-11-09T19:15:58.724Z,56.17
2022-11-09T19:18:53.517Z,55.17
2022-11-09T19:21:47.541Z,60.72
2022-11-09T19:24:38.795Z,54.05
2022-11-09T19:27:31.934Z,59.67
2022-11-09T19:30:27.968Z,52.45
2022-11-09T19:33:20.546Z,65.28
2022-11-09T19:36:31.199Z,52.45
2022-11-09T19:39:22.894Z,66.20
2022-11-09T19:42:16.851Z,69.18
2022-11-09T19:45:11.388Z,55.47
2022-11-09T19:48:03.659Z,47.42
2022-11-09T19:50:55.443Z,50.28
2022-11-09T19:53:52.038Z,45.80
2022-11-09T19:56:43.206Z,45.20
2022-11-09T19:59:37.712Z,53.03
2022-11-09T20:02:31.208Z,40.65
2022-11-09T20:05:22.288Z,49.72
2022-11-09T20:08:14.829Z,38.30
2022-11-09T20:11:08.775Z,42.45
2022-11-09T20:14:02.274Z,44.47
2022-11-09T20:16:53.306Z,45.75
2022-11-09T20:19:44.311Z,52.50
2022-11-09T20:22:37.921Z,36.33
2022-11-09T20:25:29.216Z,56.60
2022-11-09T20:28:21.443Z,106.50
2022-11-09T20:31:15.552Z,100.68
2022-11-09T20:34:08.140Z,101.40
2022-11-09T20:36:59.300Z,59.22
2022-11-09T20:39:50.185Z,49.60
2022-11-09T20:42:41.948Z,36.80
2022-11-09T20:45:36.633Z,44.80
2022-11-09T20:48:52.234Z,52.22
2022-11-09T20:51:39.073Z,60.28
2022-11-09T20:54:29.894Z,49.95
2022-11-09T20:57:21.198Z,58.15
2022-11-09T21:00:13.255Z,50.55
2022-11-09T21:03:05.379Z,62.38
2022-11-09T21:05:59.296Z,60.47
2022-11-09T21:08:52.346Z,55.05
2022-11-09T21:11:57.726Z,35.08
2022-11-09T21:14:48.666Z,41.75
2022-11-09T21:17:40.530Z,35.70
2022-11-09T21:20:32.760Z,24.30
2022-11-09T21:23:41.590Z,24.85
2022-11-09T21:26:50.877Z,27.65
2022-11-09T21:29:50.765Z,23.83
2022-11-09T21:32:41.854Z,29.70
2022-11-09T21:35:33.626Z,24.73
2022-11-09T21:38:24.810Z,29.13
2022-11-09T21:41:36.938Z,28.65
2022-11-09T21:44:29.078Z,38.50
2022-11-09T21:47:20.211Z,42.05
2022-11-09T21:50:12.774Z,55.42
2022-11-09T21:53:11.287Z,42.92
2022-11-09T21:56:02.326Z,37.13
2022-11-09T21:58:53.576Z,63.20
2022-11-09T22:01:44.789Z,56.75
2022-11-09T22:04:35.948Z,51.92
2022-11-09T22:07:27.071Z,43.53
2022-11-09T22:10:18.972Z,41.42
2022-11-09T22:13:31.146Z,67.88
2022-11-09T22:16:23.460Z,45.83
2022-11-09T22:19:32.521Z,43.53
2022-11-09T22:22:23.752Z,35.83
2022-11-09T22:25:14.993Z,33.80
2022-11-09T22:28:06.705Z,49.95
2022-11-09T22:31:00.185Z,40.83
2022-11-09T22:33:51.831Z,40.53
2022-11-09T22:36:42.805Z,39.00
2022-11-09T22:39:33.909Z,33.13
2022-11-09T22:42:24.913Z,29.15
2022-11-09T22:45:16.667Z,25.65
2022-11-09T22:48:07.481Z,27.92
2022-11-09T22:50:58.624Z,29.90
2022-11-09T22:53:50.604Z,25.75
2022-11-09T22:56:41.486Z,22.90
2022-11-09T22:59:32.321Z,30.50
2022-11-09T23:02:24.143Z,28.60
2022-11-09T23:05:15.806Z,19.60
2022-11-09T23:08:07.121Z,22.65
2022-11-09T23:10:58.239Z,20.80
2022-11-09T23:13:49.818Z,22.30
2022-11-09T23:16:40.533Z,21.88
2022-11-09T23:19:31.723Z,20.17
2022-11-09T23:22:22.781Z,18.77
2022-11-09T23:25:32.312Z,19.35
2022-11-09T23:28:23.062Z,13.90
2022-11-09T23:31:15.387Z,20.00
2022-11-09T23:34:10.246Z,19.40
2022-11-09T23:37:02.210Z,17.60
2022-11-09T23:39:53.435Z,21.23
2022-11-09T23:42:44.514Z,14.15
2022-11-09T23:45:36.963Z,18.60
2022-11-09T23:48:28.067Z,14.82
2022-11-09T23:51:19.087Z,17.50
2022-11-09T23:54:10.742Z,20.80
2022-11-09T23:57:01.819Z,15.23
2022-11-09T23:59:52.650Z,14.23
